Time;durP1;ratioP1;P1;durP2;ratioP2;P2;SDS_P1;SDS_P2;PMS_P1;PMS_P2;Temp;Humidity;BMP_temperature;BMP_pressure;BME280_temperature;BME280_humidity;BME280_pressure;Samples;Min_cycle;Max_cycle;Signal;HPM_P1;HPM_P2
2022/12/07 00:00:50;;;;;;;116.68;33.45;;;-0.50;99.90;;;;;;5082299;28;20038;-89
2022/12/07 00:03:16;;;;;;;106.88;31.23;;;-0.60;99.90;;;;;;5078702;28;20442;-89
2022/12/07 00:05:41;;;;;;;135.48;34.60;;;-0.70;99.90;;;;;;5056359;28;20116;-89
2022/12/07 00:08:07;;;;;;;123.22;32.92;;;-0.70;99.90;;;;;;5074839;28;20463;-89
2022/12/07 00:10:34;;;;;;;102.70;31.83;;;-0.70;99.90;;;;;;5054628;28;20028;-88
2022/12/07 00:12:59;;;;;;;120.07;34.55;;;-0.70;99.90;;;;;;5075444;28;20083;-89
2022/12/07 00:15:25;;;;;;;115.15;33.90;;;-0.70;99.90;;;;;;5075508;28;20032;-89
2022/12/07 00:17:51;;;;;;;122.93;34.17;;;-0.60;99.90;;;;;;5052766;28;20025;-89
2022/12/07 00:20:16;;;;;;;115.70;33.15;;;-0.60;99.90;;;;;;5075059;28;20123;-89
2022/12/07 00:22:42;;;;;;;125.63;33.63;;;-0.70;99.90;;;;;;5075126;28;20392;-89
2022/12/07 00:25:08;;;;;;;115.20;32.72;;;-0.80;99.90;;;;;;5061874;28;20032;-89
2022/12/07 00:27:33;;;;;;;105.50;31.33;;;-0.90;99.90;;;;;;5075442;28;20035;-89
2022/12/07 00:29:59;;;;;;;128.77;33.75;;;-1.00;99.90;;;;;;5051427;28;20025;-89
2022/12/07 00:32:25;;;;;;;123.32;32.70;;;-1.00;99.90;;;;;;5075238;28;20028;-89
2022/12/07 00:34:50;;;;;;;128.77;33.42;;;-1.00;99.90;;;;;;5062677;28;20028;-89
2022/12/07 00:37:16;;;;;;;121.53;33.88;;;-1.10;99.90;;;;;;5060836;28;20499;-89
2022/12/07 00:39:42;;;;;;;125.07;33.40;;;-1.00;99.90;;;;;;5074556;28;20037;-90
2022/12/07 00:42:07;;;;;;;128.85;36.47;;;-0.90;99.90;;;;;;5055335;28;20036;-89
2022/12/07 00:44:33;;;;;;;115.65;33.90;;;-0.70;99.90;;;;;;5074559;28;20028;-89
2022/12/07 00:46:59;;;;;;;134.02;34.55;;;-0.60;99.90;;;;;;5051637;28;20081;-88
2022/12/07 00:49:24;;;;;;;124.75;34.88;;;-0.50;99.90;;;;;;5074365;28;20021;-89
2022/12/07 00:51:50;;;;;;;114.22;34.60;;;-0.50;99.90;;;;;;5062436;28;20376;-89
2022/12/07 00:54:15;;;;;;;116.28;32.45;;;-0.50;99.90;;;;;;5076817;28;20056;-89
2022/12/07 00:56:41;;;;;;;124.03;35.63;;;-0.40;99.90;;;;;;5077235;28;20032;-89
2022/12/07 00:59:10;;;;;;;127.45;36.78;;;-0.40;99.90;;;;;;5073869;28;20032;-89
2022/12/07 01:01:36;;;;;;;129.30;38.65;;;-0.30;99.90;;;;;;5074605;28;20352;-89
2022/12/07 01:04:03;;;;;;;129.68;36.45;;;-0.20;99.90;;;;;;5069179;28;20052;-89
2022/12/07 01:06:29;;;;;;;139.27;36.88;;;-0.20;99.90;;;;;;5074506;28;20032;-89
2022/12/07 01:08:55;;;;;;;162.55;43.95;;;-0.10;99.90;;;;;;5073366;28;20119;-88
2022/12/07 01:11:24;;;;;;;156.10;42.53;;;-0.10;99.90;;;;;;5057255;28;20052;-89
2022/12/07 01:13:51;;;;;;;161.70;46.05;;;-0.10;99.90;;;;;;5068591;28;20032;-89
2022/12/07 01:16:17;;;;;;;175.15;48.03;;;0.00;99.90;;;;;;5073929;28;20061;-89
2022/12/07 01:18:47;;;;;;;188.02;52.33;;;0.00;99.90;;;;;;5074371;28;20071;-89
2022/12/07 01:21:25;;;;;;;151.50;42.30;;;0.00;99.90;;;;;;5067187;28;20029;-89
2022/12/07 01:23:52;;;;;;;165.00;41.35;;;0.00;99.90;;;;;;5074206;28;20036;-89
2022/12/07 01:26:22;;;;;;;156.75;38.75;;;0.00;99.90;;;;;;5073026;28;20077;-89
2022/12/07 01:28:49;;;;;;;146.10;38.40;;;0.00;99.90;;;;;;5056899;28;20036;-89
2022/12/07 01:31:17;;;;;;;136.40;37.63;;;0.00;99.90;;;;;;5068436;28;20472;-89
2022/12/07 01:33:45;;;;;;;139.07;36.47;;;0.00;99.90;;;;;;5055977;28;20021;-89
2022/12/07 01:36:17;;;;;;;137.25;37.03;;;0.10;99.90;;;;;;5057723;28;20048;-89
2022/12/07 01:38:44;;;;;;;163.55;38.67;;;0.10;99.90;;;;;;5068055;28;20036;-89
2022/12/07 01:41:10;;;;;;;151.00;38.72;;;0.10;99.90;;;;;;5074208;28;20032;-89
2022/12/07 01:43:37;;;;;;;155.82;39.20;;;0.10;99.90;;;;;;5074508;28;20028;-89
2022/12/07 01:46:03;;;;;;;138.15;38.35;;;0.10;99.90;;;;;;5062722;28;20036;-89
2022/12/07 01:48:40;;;;;;;148.63;38.53;;;0.20;99.90;;;;;;5070284;28;20476;-88
2022/12/07 01:51:13;;;;;;;157.85;39.53;;;0.20;99.90;;;;;;5055824;28;20209;-89
2022/12/07 01:53:43;;;;;;;149.07;39.30;;;0.20;99.90;;;;;;5073625;28;20032;-89
2022/12/07 01:56:15;;;;;;;159.60;41.67;;;0.20;99.90;;;;;;5077016;28;20167;-89
2022/12/07 01:58:41;;;;;;;177.48;44.20;;;0.30;99.90;;;;;;5071159;28;20039;-89
2022/12/07 02:01:06;;;;;;;140.70;40.13;;;0.30;99.90;;;;;;5069145;28;20040;-89
2022/12/07 02:03:41;;;;;;;149.32;39.50;;;0.30;99.90;;;;;;5072939;28;20406;-89
2022/12/07 02:06:09;;;;;;;147.80;39.83;;;0.30;99.90;;;;;;5062896;28;20432;-89
2022/12/07 02:08:35;;;;;;;155.38;40.45;;;0.40;99.90;;;;;;5073541;28;20024;-89
2022/12/07 02:11:03;;;;;;;143.52;41.35;;;0.30;99.90;;;;;;5051011;28;20071;-88
2022/12/07 02:13:32;;;;;;;157.88;40.05;;;0.40;99.90;;;;;;5057573;28;20089;-89
2022/12/07 02:16:29;;;;;;;133.95;39.38;;;0.30;99.90;;;;;;5074249;28;20029;-89
2022/12/07 02:19:29;;;;;;;150.43;38.70;;;0.30;99.90;;;;;;5071975;28;20032;-89
2022/12/07 02:21:58;;;;;;;136.52;39.28;;;0.30;99.90;;;;;;5062551;28;20048;-89
2022/12/07 02:24:42;;;;;;;161.60;44.88;;;0.40;99.90;;;;;;5056110;28;20056;-89
2022/12/07 02:27:25;;;;;;;141.55;37.92;;;0.40;99.90;;;;;;5073380;28;20048;-89
2022/12/07 02:30:07;;;;;;;158.15;37.78;;;0.40;99.90;;;;;;5066850;28;20029;-89
2022/12/07 02:32:53;;;;;;;151.93;38.83;;;0.40;99.90;;;;;;5074590;28;20025;-89
2022/12/07 02:35:25;;;;;;;152.32;39.25;;;0.40;99.90;;;;;;5084769;28;20123;-89
2022/12/07 02:38:08;;;;;;;152.15;38.85;;;0.40;99.90;;;;;;5073847;28;20050;-89
2022/12/07 02:40:50;;;;;;;153.25;40.63;;;0.40;99.90;;;;;;5046460;28;20016;-89
2022/12/07 02:43:27;;;;;;;154.85;41.03;;;0.40;99.90;;;;;;5067006;28;20025;-89
2022/12/07 02:45:57;;;;;;;145.77;37.45;;;0.40;99.90;;;;;;5073786;28;20040;-89
2022/12/07 02:48:25;;;;;;;162.60;38.88;;;0.30;99.90;;;;;;5069383;28;20033;-89
2022/12/07 02:50:53;;;;;;;158.30;39.30;;;0.30;99.90;;;;;;5055532;28;20064;-89
2022/12/07 02:53:31;;;;;;;166.90;41.50;;;0.40;99.90;;;;;;5065217;28;20029;-89
2022/12/07 02:55:57;;;;;;;177.98;40.15;;;0.30;99.90;;;;;;5067393;28;20040;-89
2022/12/07 02:58:50;;;;;;;157.38;38.72;;;0.30;99.90;;;;;;5068978;28;20025;-89
2022/12/07 03:01:24;;;;;;;144.68;37.40;;;0.40;99.90;;;;;;5056130;28;20424;-89
2022/12/07 03:04:20;;;;;;;161.65;39.00;;;0.40;99.90;;;;;;5083909;28;20037;-89
2022/12/07 03:06:56;;;;;;;177.65;43.40;;;0.40;99.90;;;;;;5072985;28;20123;-89
2022/12/07 03:09:32;;;;;;;184.88;42.15;;;0.30;99.90;;;;;;5064338;28;20029;-89
2022/12/07 03:12:26;;;;;;;182.10;42.00;;;0.40;99.90;;;;;;5076457;28;20058;-89
2022/12/07 03:15:21;;;;;;;200.57;48.22;;;0.40;99.90;;;;;;5054995;28;20033;-89
2022/12/07 03:17:49;;;;;;;224.43;49.00;;;0.40;99.90;;;;;;5087012;28;20036;-90
2022/12/07 03:20:21;;;;;;;197.18;47.17;;;0.50;99.90;;;;;;5076978;28;20598;-89
2022/12/07 03:22:47;;;;;;;195.15;46.25;;;0.50;99.90;;;;;;5076508;28;20056;-89
2022/12/07 03:25:16;;;;;;;200.80;50.40;;;0.50;99.90;;;;;;5081010;28;20078;-89
2022/12/07 03:28:05;;;;;;;168.10;44.13;;;0.60;99.90;;;;;;5076347;28;20024;-89
2022/12/07 03:30:52;;;;;;;190.90;45.95;;;0.60;99.90;;;;;;5064891;28;20415;-90
2022/12/07 03:33:27;;;;;;;210.13;46.47;;;0.60;99.90;;;;;;5056281;28;20021;-89
2022/12/07 03:36:05;;;;;;;180.93;43.88;;;0.60;99.90;;;;;;5076269;28;20032;-89
2022/12/07 03:42:19;;;;;;;177.65;46.38;;;0.60;99.90;;;;;;5071897;28;20028;-89
2022/12/07 03:44:44;;;;;;;166.85;42.65;;;0.50;99.90;;;;;;5069662;28;20033;-89
2022/12/07 03:47:13;;;;;;;178.45;42.40;;;0.50;99.90;;;;;;5054786;28;20032;-88
2022/12/07 03:49:48;;;;;;;152.85;40.40;;;0.60;99.90;;;;;;5075635;28;20039;-89
2022/12/07 03:52:30;;;;;;;146.27;41.08;;;0.60;99.90;;;;;;5072977;28;20410;-89
2022/12/07 03:55:08;;;;;;;160.15;41.60;;;0.60;99.90;;;;;;5091823;28;20020;-90
2022/12/07 03:57:34;;;;;;;154.52;41.13;;;0.60;99.90;;;;;;5077404;28;20028;-89
2022/12/07 04:00:03;;;;;;;154.10;38.67;;;0.60;99.90;;;;;;5072395;28;20021;-89
2022/12/07 04:02:38;;;;;;;157.50;39.90;;;0.60;99.90;;;;;;5074916;28;20059;-89
2022/12/07 04:05:04;;;;;;;140.80;37.85;;;0.60;99.90;;;;;;5071655;28;20025;-89
2022/12/07 04:07:31;;;;;;;139.30;37.15;;;0.60;99.90;;;;;;5053028;28;20531;-90
2022/12/07 04:09:57;;;;;;;131.48;35.08;;;0.60;99.90;;;;;;5049960;28;20044;-89
2022/12/07 04:12:23;;;;;;;116.40;33.33;;;0.50;99.90;;;;;;5074577;28;20021;-89
2022/12/07 04:14:49;;;;;;;134.85;34.78;;;0.50;99.90;;;;;;5075682;28;20025;-89
2022/12/07 04:17:14;;;;;;;131.30;34.20;;;0.60;99.90;;;;;;5062967;28;20063;-89
2022/12/07 04:19:40;;;;;;;123.85;36.03;;;0.60;99.90;;;;;;5072944;28;20791;-89
2022/12/07 04:22:07;;;;;;;125.55;34.92;;;0.60;99.90;;;;;;5055623;28;20036;-89
2022/12/07 04:24:33;;;;;;;110.15;32.38;;;0.60;99.90;;;;;;5074501;28;20028;-89
2022/12/07 04:26:59;;;;;;;112.53;32.60;;;0.60;99.90;;;;;;5062229;28;20028;-89
2022/12/07 04:29:25;;;;;;;110.30;32.22;;;0.60;99.90;;;;;;5062742;28;20091;-88
2022/12/07 04:31:51;;;;;;;125.38;33.65;;;0.60;99.90;;;;;;5075510;28;20032;-89
2022/12/07 04:34:18;;;;;;;118.13;35.33;;;0.60;99.90;;;;;;5060795;28;20032;-89
2022/12/07 04:36:44;;;;;;;109.43;33.55;;;0.70;99.90;;;;;;5071864;28;20090;-89
2022/12/07 04:39:27;;;;;;;114.00;32.08;;;0.70;99.90;;;;;;5066957;28;20033;-89
2022/12/07 04:41:53;;;;;;;100.65;30.85;;;0.70;99.90;;;;;;5067814;28;20353;-89
2022/12/07 04:44:20;;;;;;;99.25;32.85;;;0.70;99.90;;;;;;5072224;28;20028;-88
2022/12/07 04:46:46;;;;;;;108.60;32.13;;;0.70;99.90;;;;;;5074242;28;20499;-89
2022/12/07 04:49:13;;;;;;;89.45;28.80;;;0.70;99.90;;;;;;5061773;28;20029;-89
2022/12/07 04:51:39;;;;;;;78.72;26.80;;;0.70;99.90;;;;;;5074871;28;20028;-89
2022/12/07 04:54:05;;;;;;;86.43;26.58;;;0.70;99.90;;;;;;5067249;28;20029;-89
2022/12/07 04:56:30;;;;;;;80.55;23.98;;;0.70;99.90;;;;;;5064736;28;20037;-90
2022/12/07 04:58:56;;;;;;;70.50;24.67;;;0.70;99.90;;;;;;5071483;28;20482;-89
2022/12/07 05:01:23;;;;;;;73.20;24.13;;;0.60;99.90;;;;;;5054631;28;20033;-89
2022/12/07 05:03:49;;;;;;;62.72;22.73;;;0.70;99.90;;;;;;5073204;28;20056;-89
2022/12/07 05:06:15;;;;;;;67.32;22.23;;;0.60;99.90;;;;;;5058611;28;20048;-89
2022/12/07 05:08:41;;;;;;;69.15;24.23;;;0.60;99.90;;;;;;5074758;28;20032;-89
2022/12/07 05:11:08;;;;;;;79.72;24.92;;;0.60;99.90;;;;;;5066277;28;20067;-89
2022/12/07 05:13:39;;;;;;;65.22;23.63;;;0.60;99.90;;;;;;5057885;28;20039;-89
2022/12/07 05:16:49;;;;;;;75.05;25.58;;;0.60;99.90;;;;;;5074569;28;20411;-90
2022/12/07 05:19:16;;;;;;;70.85;24.58;;;0.70;99.90;;;;;;5045535;28;20025;-89
2022/12/07 05:21:41;;;;;;;77.57;26.08;;;0.70;99.90;;;;;;5074153;28;20020;-89
2022/12/07 05:24:09;;;;;;;75.90;26.85;;;0.70;99.90;;;;;;5056192;28;20032;-88
2022/12/07 05:26:35;;;;;;;76.75;27.92;;;0.70;99.90;;;;;;5057259;28;20032;-88
2022/12/07 05:29:01;;;;;;;83.88;27.98;;;0.60;99.90;;;;;;5067821;28;20472;-89
2022/12/07 05:31:27;;;;;;;70.70;26.15;;;0.60;99.90;;;;;;5074041;28;20026;-89
2022/12/07 05:33:53;;;;;;;69.38;24.23;;;0.60;99.90;;;;;;5074292;28;20458;-89
2022/12/07 05:36:19;;;;;;;74.05;26.20;;;0.60;99.90;;;;;;5067683;28;20060;-89
2022/12/07 05:38:45;;;;;;;74.88;24.25;;;0.50;99.90;;;;;;5073767;28;20020;-89
2022/12/07 05:43:59;;;;;;;97.07;31.02;;;0.50;99.90;;;;;;5077188;28;20471;-89
2022/12/07 05:46:25;;;;;;;79.68;26.38;;;0.60;99.90;;;;;;5074090;28;20070;-89
2022/12/07 05:48:50;;;;;;;78.45;25.08;;;0.50;99.90;;;;;;5073935;28;20391;-89
2022/12/07 05:51:16;;;;;;;69.97;25.67;;;0.50;99.90;;;;;;5078611;28;20024;-90
2022/12/07 05:53:42;;;;;;;70.20;25.60;;;0.40;99.90;;;;;;5071778;28;20069;-90
2022/12/07 05:56:08;;;;;;;74.90;26.10;;;0.40;99.90;;;;;;5052179;28;20113;-90
2022/12/07 06:01:17;;;;;;;71.97;26.77;;;0.40;99.90;;;;;;5062108;28;20530;-90
2022/12/07 06:03:44;;;;;;;70.35;23.33;;;0.40;99.90;;;;;;5071855;28;20028;-90
2022/12/07 06:06:10;;;;;;;78.28;24.13;;;0.40;99.90;;;;;;5067561;28;20379;-90
2022/12/07 06:08:36;;;;;;;65.63;21.73;;;0.30;99.90;;;;;;5056060;28;20021;-89
2022/12/07 06:13:45;;;;;;;65.72;24.02;;;0.30;99.90;;;;;;5071213;28;20382;-89
2022/12/07 06:16:11;;;;;;;63.08;21.20;;;0.30;99.90;;;;;;5071487;28;20031;-89
2022/12/07 06:18:36;;;;;;;77.57;28.33;;;0.40;99.90;;;;;;5063305;28;20120;-90
2022/12/07 06:21:02;;;;;;;76.10;28.65;;;0.40;99.90;;;;;;5068939;28;20109;-89
2022/12/07 06:23:28;;;;;;;65.55;26.15;;;0.40;99.90;;;;;;5058919;28;20394;-90
2022/12/07 06:25:53;;;;;;;126.82;52.28;;;0.40;99.90;;;;;;5070225;28;20552;-90
2022/12/07 06:28:19;;;;;;;53.72;21.52;;;0.40;99.90;;;;;;5043936;28;20091;-88
2022/12/07 06:30:45;;;;;;;77.20;32.47;;;0.40;99.90;;;;;;5054069;28;20553;-89
2022/12/07 06:33:10;;;;;;;94.57;39.08;;;0.40;99.90;;;;;;5063950;28;20410;-89
2022/12/07 06:35:36;;;;;;;76.88;30.30;;;0.40;99.90;;;;;;5067355;28;20559;-89
2022/12/07 06:38:02;;;;;;;52.00;19.75;;;0.40;99.90;;;;;;5064057;28;20365;-89
2022/12/07 06:40:27;;;;;;;48.88;17.45;;;0.40;99.90;;;;;;5071236;28;20086;-89
2022/12/07 06:42:53;;;;;;;52.65;17.10;;;0.50;99.90;;;;;;5054455;28;20024;-89
2022/12/07 06:45:19;;;;;;;44.50;17.00;;;0.50;99.90;;;;;;5051178;28;20124;-89
2022/12/07 06:47:44;;;;;;;49.40;18.02;;;0.50;99.90;;;;;;5075945;28;20460;-89
2022/12/07 06:50:10;;;;;;;47.70;18.70;;;0.50;99.90;;;;;;5073510;28;20025;-89
2022/12/07 06:52:36;;;;;;;53.83;18.70;;;0.50;99.90;;;;;;5069832;28;20056;-89
2022/12/07 06:55:02;;;;;;;49.33;18.73;;;0.50;99.90;;;;;;5067546;28;20073;-89
2022/12/07 06:57:27;;;;;;;53.10;18.60;;;0.50;99.90;;;;;;5074193;28;20029;-88
2022/12/07 06:59:53;;;;;;;47.58;16.67;;;0.50;99.90;;;;;;5068333;28;20525;-89
2022/12/07 07:02:19;;;;;;;47.67;15.68;;;0.50;99.90;;;;;;5069346;28;20115;-89
2022/12/07 07:04:44;;;;;;;44.47;16.05;;;0.60;99.90;;;;;;5073552;28;20040;-89
2022/12/07 07:07:10;;;;;;;43.35;16.35;;;0.50;99.90;;;;;;5063218;28;20039;-90
2022/12/07 07:09:36;;;;;;;47.25;17.52;;;0.50;99.90;;;;;;5064089;28;20031;-89
2022/12/07 07:12:02;;;;;;;52.28;18.80;;;0.60;99.90;;;;;;5038217;28;20029;-89
2022/12/07 07:14:27;;;;;;;65.68;23.02;;;0.60;99.90;;;;;;5040346;28;20037;-89
2022/12/07 07:16:53;;;;;;;68.75;22.92;;;0.60;99.90;;;;;;5073925;28;20682;-90
2022/12/07 07:19:19;;;;;;;73.82;29.52;;;0.60;99.90;;;;;;5071157;28;20541;-89
2022/12/07 07:21:44;;;;;;;72.30;27.25;;;0.50;99.90;;;;;;5074830;28;20042;-89
2022/12/07 07:24:33;;;;;;;67.65;25.25;;;0.50;99.90;;;;;;5069378;28;20033;-89
2022/12/07 07:27:05;;;;;;;63.63;23.52;;;0.50;99.90;;;;;;5043761;28;20029;-89
2022/12/07 07:29:30;;;;;;;66.80;24.48;;;0.60;99.90;;;;;;5067664;28;20032;-89
2022/12/07 07:31:56;;;;;;;64.18;23.33;;;0.60;99.90;;;;;;5059976;28;20029;-89
2022/12/07 07:34:22;;;;;;;64.35;23.08;;;0.60;99.90;;;;;;5071243;28;20082;-89
2022/12/07 07:36:48;;;;;;;63.15;22.60;;;0.60;99.90;;;;;;5066744;28;20052;-89
2022/12/07 07:39:13;;;;;;;54.03;21.70;;;0.60;99.90;;;;;;5058655;28;20028;-89
2022/12/07 07:41:39;;;;;;;61.10;23.17;;;0.70;99.90;;;;;;5073985;28;20036;-90
2022/12/07 07:44:12;;;;;;;66.93;25.85;;;0.70;99.90;;;;;;5072007;28;20028;-89
2022/12/07 07:46:37;;;;;;;66.13;25.45;;;0.70;99.90;;;;;;5056147;28;20041;-89
2022/12/07 07:50:10;;;;;;;77.30;28.83;;;0.70;99.90;;;;;;5059953;28;20116;-89
2022/12/07 07:52:35;;;;;;;63.45;23.50;;;0.70;99.90;;;;;;5052071;28;20526;-89
2022/12/07 07:55:01;;;;;;;74.63;26.17;;;0.60;99.90;;;;;;5044170;28;20032;-88
2022/12/07 07:57:27;;;;;;;78.35;29.00;;;0.60;99.90;;;;;;5071145;28;20036;-89
2022/12/07 07:59:53;;;;;;;67.88;27.35;;;0.70;99.90;;;;;;5073498;28;20640;-89
2022/12/07 08:02:20;;;;;;;78.90;32.10;;;0.70;99.90;;;;;;5073822;28;20789;-89
2022/12/07 08:04:46;;;;;;;113.40;36.00;;;0.70;99.90;;;;;;5041566;28;20119;-89
2022/12/07 08:07:12;;;;;;;214.07;80.30;;;0.80;99.90;;;;;;5056191;28;20100;-89
2022/12/07 08:09:39;;;;;;;213.38;86.93;;;0.80;99.90;;;;;;5070555;28;20441;-89
2022/12/07 08:12:05;;;;;;;86.65;33.75;;;0.80;99.90;;;;;;5069976;28;20048;-89
2022/12/07 08:14:31;;;;;;;73.65;27.60;;;0.90;99.90;;;;;;5071760;28;20035;-89
2022/12/07 08:16:57;;;;;;;69.88;27.15;;;1.00;99.90;;;;;;5067236;28;20082;-89
2022/12/07 08:19:23;;;;;;;85.28;30.17;;;1.00;99.90;;;;;;5069903;28;20036;-89
2022/12/07 08:21:49;;;;;;;78.65;30.73;;;1.10;99.90;;;;;;5070074;28;20036;-89
2022/12/07 08:24:15;;;;;;;81.35;31.88;;;1.10;99.90;;;;;;5068461;28;20070;-90
2022/12/07 08:26:42;;;;;;;72.07;28.20;;;1.10;99.90;;;;;;5070788;28;20493;-89
2022/12/07 08:29:07;;;;;;;76.78;28.02;;;1.10;99.90;;;;;;5069414;28;20024;-89
2022/12/07 08:31:33;;;;;;;76.03;28.02;;;1.20;99.90;;;;;;5072083;28;20078;-89
2022/12/07 08:33:59;;;;;;;71.05;29.63;;;1.20;99.90;;;;;;5059640;28;20035;-89
2022/12/07 08:36:25;;;;;;;83.85;32.38;;;1.20;99.90;;;;;;5072908;28;20020;-89
2022/12/07 08:38:51;;;;;;;86.82;31.38;;;1.20;99.90;;;;;;5073502;28;20082;-89
2022/12/07 08:41:17;;;;;;;83.13;30.35;;;1.20;99.90;;;;;;5056689;28;20032;-89
2022/12/07 08:43:43;;;;;;;77.45;30.75;;;1.20;99.90;;;;;;5056823;28;20033;-90
2022/12/07 08:46:23;;;;;;;79.72;30.95;;;1.20;99.90;;;;;;5048542;28;20029;-90
2022/12/07 08:48:58;;;;;;;69.43;28.67;;;1.10;99.90;;;;;;5057763;28;20020;-89
2022/12/07 08:51:24;;;;;;;73.43;30.08;;;1.10;99.90;;;;;;5089927;28;20046;-90
2022/12/07 08:53:51;;;;;;;76.80;28.38;;;1.30;99.90;;;;;;5073318;28;20021;-89
2022/12/07 08:56:18;;;;;;;74.97;29.15;;;1.20;99.90;;;;;;5072930;28;20028;-89
2022/12/07 08:58:44;;;;;;;70.82;28.88;;;1.20;99.90;;;;;;5059893;28;20489;-89
2022/12/07 09:01:10;;;;;;;72.85;28.73;;;1.20;99.90;;;;;;5083685;28;20029;-89
2022/12/07 09:03:36;;;;;;;78.05;31.92;;;1.20;99.90;;;;;;5089607;28;20024;-89
2022/12/07 09:06:02;;;;;;;84.30;32.90;;;1.30;99.90;;;;;;5072649;28;20161;-89
2022/12/07 09:08:33;;;;;;;76.63;31.83;;;1.30;99.90;;;;;;5077630;28;20035;-89
2022/12/07 09:10:59;;;;;;;77.95;31.23;;;1.30;99.90;;;;;;5073348;28;20472;-89
2022/12/07 09:13:25;;;;;;;69.65;27.63;;;1.30;99.90;;;;;;5057389;28;20021;-89
2022/12/07 09:15:50;;;;;;;89.90;29.58;;;1.30;99.90;;;;;;5074164;28;20032;-89
2022/12/07 09:18:16;;;;;;;71.53;29.67;;;1.30;99.90;;;;;;5061107;28;20035;-89
2022/12/07 09:20:42;;;;;;;77.93;29.95;;;1.30;99.90;;;;;;5071195;28;20028;-89
2022/12/07 09:23:07;;;;;;;74.53;28.63;;;1.30;99.90;;;;;;5073183;28;20032;-89
2022/12/07 09:25:34;;;;;;;72.82;27.65;;;1.30;99.90;;;;;;5071720;28;20092;-89
2022/12/07 09:28:00;;;;;;;64.55;27.50;;;1.30;99.90;;;;;;5073380;28;20115;-89
2022/12/07 09:30:26;;;;;;;69.07;29.50;;;1.30;99.90;;;;;;5066232;28;20049;-89
2022/12/07 09:32:57;;;;;;;73.10;30.67;;;1.40;99.90;;;;;;5086348;28;20024;-90
2022/12/07 09:35:24;;;;;;;68.43;27.10;;;1.40;99.90;;;;;;5067406;28;20040;-90
2022/12/07 09:37:49;;;;;;;71.25;27.35;;;1.40;99.90;;;;;;5081822;28;20043;-89
2022/12/07 09:40:17;;;;;;;73.05;26.45;;;1.30;99.90;;;;;;5053026;28;20411;-89
2022/12/07 09:42:47;;;;;;;63.78;25.70;;;1.20;99.90;;;;;;5057641;28;20035;-89
2022/12/07 09:45:26;;;;;;;73.50;25.77;;;1.20;99.90;;;;;;5072663;28;20028;-89
2022/12/07 09:47:52;;;;;;;64.10;25.45;;;1.30;99.90;;;;;;5077397;28;20545;-89
2022/12/07 09:50:54;;;;;;;73.30;26.95;;;1.30;99.90;;;;;;5069368;28;20024;-89
2022/12/07 09:53:29;;;;;;;73.07;28.42;;;1.30;99.90;;;;;;5069142;28;20021;-88
2022/12/07 09:55:55;;;;;;;84.72;29.00;;;1.30;99.90;;;;;;5046925;28;20024;-89
2022/12/07 09:58:24;;;;;;;72.45;29.75;;;1.40;99.90;;;;;;5073054;28;20028;-89
2022/12/07 10:01:15;;;;;;;70.30;30.95;;;1.40;99.90;;;;;;5066434;28;20119;-89
2022/12/07 10:03:52;;;;;;;76.28;30.40;;;1.40;99.90;;;;;;5086045;28;20518;-89
2022/12/07 10:06:18;;;;;;;71.35;27.52;;;1.40;99.90;;;;;;5068364;28;20132;-88
2022/12/07 10:08:44;;;;;;;71.65;29.48;;;1.40;99.90;;;;;;5078867;28;20031;-89
2022/12/07 10:11:11;;;;;;;75.25;28.73;;;1.30;99.90;;;;;;5076763;28;20131;-89
2022/12/07 10:13:40;;;;;;;81.45;32.92;;;1.40;99.90;;;;;;5072642;28;20032;-89
2022/12/07 10:16:27;;;;;;;80.30;31.30;;;1.40;99.90;;;;;;5077909;28;20028;-89
2022/12/07 10:18:54;;;;;;;69.78;29.08;;;1.50;99.90;;;;;;5060028;28;20384;-89
2022/12/07 10:21:25;;;;;;;78.30;29.77;;;1.50;99.90;;;;;;5068402;28;20033;-88
2022/12/07 10:24:14;;;;;;;83.60;33.53;;;1.50;99.90;;;;;;5051991;28;20490;-89
2022/12/07 10:26:46;;;;;;;115.15;36.88;;;1.60;99.90;;;;;;5086910;28;20033;-89
2022/12/07 10:29:40;;;;;;;169.13;37.42;;;1.70;99.90;;;;;;5068651;28;20464;-89
2022/12/07 10:32:24;;;;;;;84.85;34.53;;;1.60;99.90;;;;;;5049022;28;20055;-89
2022/12/07 10:34:50;;;;;;;112.20;36.45;;;1.60;99.90;;;;;;5058722;28;20379;-89
2022/12/07 10:37:19;;;;;;;162.05;37.65;;;1.70;99.90;;;;;;5059077;28;20085;-89
2022/12/07 10:40:24;;;;;;;83.45;32.92;;;1.60;99.90;;;;;;5092532;28;20031;-89
2022/12/07 10:43:19;;;;;;;85.63;30.63;;;1.60;99.90;;;;;;5075978;28;20083;-88
2022/12/07 10:45:51;;;;;;;221.05;50.13;;;1.60;99.90;;;;;;5070657;28;20480;-89
2022/12/07 10:48:24;;;;;;;223.30;61.35;;;1.70;99.90;;;;;;5090262;28;20040;-89
2022/12/07 10:51:21;;;;;;;102.88;38.92;;;1.60;99.90;;;;;;5063355;28;20036;-89
2022/12/07 10:54:24;;;;;;;325.38;98.97;;;1.70;99.90;;;;;;5075035;28;20032;-90
2022/12/07 10:57:35;;;;;;;120.30;46.05;;;1.60;99.90;;;;;;5077680;28;20028;-89
2022/12/07 11:00:18;;;;;;;86.93;32.60;;;1.70;99.90;;;;;;5085697;28;20030;-88
2022/12/07 11:03:05;;;;;;;98.60;34.50;;;1.70;99.90;;;;;;5075465;28;20372;-89
2022/12/07 11:05:37;;;;;;;76.47;32.15;;;1.60;99.90;;;;;;5074745;28;20063;-89
2022/12/07 11:08:25;;;;;;;;;;;1.70;99.90;;;;;;5087490;28;20025;-88
2022/12/07 11:10:59;;;;;;;85.93;35.35;;;1.70;99.90;;;;;;5075072;28;19909;-89
2022/12/07 11:13:55;;;;;;;75.93;35.65;;;1.70;99.90;;;;;;5074568;28;20048;-89
2022/12/07 11:16:31;;;;;;;84.57;35.08;;;1.80;99.90;;;;;;5036913;28;20075;-89
2022/12/07 11:19:05;;;;;;;70.47;33.13;;;2.00;99.90;;;;;;5051278;28;20032;-89
2022/12/07 11:22:05;;;;;;;71.65;31.60;;;2.00;99.90;;;;;;5081824;28;20035;-89
2022/12/07 11:24:40;;;;;;;69.07;31.38;;;2.00;99.90;;;;;;5075246;28;20039;-89
2022/12/07 11:27:11;;;;;;;62.95;30.08;;;2.00;99.90;;;;;;5083241;28;20032;-89
2022/12/07 11:30:00;;;;;;;75.65;36.00;;;2.10;99.90;;;;;;5071159;28;20032;-89
2022/12/07 11:32:35;;;;;;;71.70;30.65;;;2.30;99.90;;;;;;5071263;28;20033;-89
2022/12/07 11:35:19;;;;;;;63.20;28.20;;;2.40;99.90;;;;;;5070334;28;20496;-88
2022/12/07 11:37:46;;;;;;;51.80;24.48;;;2.60;99.90;;;;;;5049716;28;20051;-89
2022/12/07 11:40:28;;;;;;;57.45;25.60;;;2.60;99.90;;;;;;5069853;28;20040;-89
2022/12/07 11:43:19;;;;;;;48.08;23.10;;;2.50;99.90;;;;;;5083855;28;20067;-89
2022/12/07 11:45:52;;;;;;;49.22;23.83;;;2.60;99.90;;;;;;5063833;28;20092;-89
2022/12/07 11:48:22;;;;;;;47.03;21.85;;;2.50;99.90;;;;;;5070516;28;20484;-88
2022/12/07 11:50:53;;;;;;;57.28;26.00;;;2.50;99.90;;;;;;5076028;28;20120;-89
2022/12/07 11:53:26;;;;;;;58.05;26.73;;;2.40;99.90;;;;;;5075148;28;20032;-89
2022/12/07 11:56:10;;;;;;;50.00;23.23;;;2.50;99.90;;;;;;5076170;28;20027;-89
2022/12/07 11:59:09;;;;;;;46.08;23.15;;;2.50;99.90;;;;;;5055047;28;20040;-89
2022/12/07 12:01:38;;;;;;;54.95;25.00;;;2.40;99.90;;;;;;5050433;28;20071;-88
2022/12/07 12:04:09;;;;;;;42.83;21.08;;;2.40;99.90;;;;;;5070936;28;20078;-89
2022/12/07 12:06:38;;;;;;;;;;;2.40;99.90;;;;;;5053972;28;20043;-88
2022/12/07 12:09:18;;;;;;;46.60;22.52;;;2.20;99.90;;;;;;5089625;28;19904;-89
2022/12/07 12:11:59;;;;;;;52.97;23.83;;;2.20;99.90;;;;;;5063042;28;20135;-89
2022/12/07 12:14:50;;;;;;;47.60;23.88;;;2.00;99.90;;;;;;5072298;28;20799;-88
2022/12/07 12:17:48;;;;;;;49.25;23.88;;;2.10;99.90;;;;;;5069570;28;20043;-89
2022/12/07 12:20:22;;;;;;;46.47;22.30;;;2.10;99.90;;;;;;5084164;28;20109;-88
2022/12/07 12:22:54;;;;;;;53.60;24.83;;;2.00;99.90;;;;;;5084429;28;20028;-89
2022/12/07 12:25:28;;;;;;;;;;;2.10;99.90;;;;;;5053554;28;20031;-89
2022/12/07 12:27:57;;;;;;;55.28;25.75;;;2.00;99.90;;;;;;5072040;28;20290;-89
2022/12/07 12:30:38;;;;;;;55.05;28.88;;;2.00;99.90;;;;;;5055515;28;20017;-88
2022/12/07 12:33:28;;;;;;;57.08;27.63;;;2.10;99.90;;;;;;5067858;28;20025;-89
2022/12/07 12:36:15;;;;;;;99.55;43.55;;;2.10;99.90;;;;;;5065887;28;20033;-88
2022/12/07 12:38:49;;;;;;;65.38;29.92;;;2.20;99.90;;;;;;5068236;28;20120;-89
2022/12/07 12:42:18;;;;;;;57.53;28.48;;;2.30;99.90;;;;;;5084106;28;20028;-88
2022/12/07 12:44:28;;;;;;;64.88;30.15;;;2.50;99.90;;;;;;5068622;28;20032;-89
2022/12/07 12:50:43;;;;;;;52.53;24.55;;;2.70;99.90;;;;;;5073847;28;20079;-88
2022/12/07 12:53:22;;;;;;;55.58;26.70;;;2.70;99.90;;;;;;5053318;28;20021;-88
2022/12/07 12:56:07;;;;;;;48.47;23.73;;;2.80;99.90;;;;;;5073574;28;20025;-88
2022/12/07 12:58:41;;;;;;;48.35;24.30;;;3.00;99.90;;;;;;5066113;28;20033;-88
2022/12/07 13:01:26;;;;;;;55.40;26.65;;;3.20;99.90;;;;;;5069318;28;20035;-89
2022/12/07 13:03:53;;;;;;;45.55;23.05;;;3.20;99.90;;;;;;5082237;28;20028;-88
2022/12/07 13:06:35;;;;;;;44.80;21.90;;;3.10;99.90;;;;;;5053106;28;20028;-89
2022/12/07 13:09:01;;;;;;;;;;;2.90;99.90;;;;;;5076666;28;20029;-89
2022/12/07 13:11:44;;;;;;;53.22;23.50;;;2.90;99.90;;;;;;5066794;28;19912;-88